Time;durP1;ratioP1;P1;durP2;ratioP2;P2;SDS_P1;SDS_P2;PMS_P1;PMS_P2;Temp;Humidity;BMP_temperature;BMP_pressure;BME280_temperature;BME280_humidity;BME280_pressure;Samples;Min_cycle;Max_cycle;Signal;HPM_P1;HPM_P2
2021/07/25 00:00:45;;;;;;;4.07;2.27;;;17.20;99.90;;;;;;5232219;28;20229;-65
2021/07/25 00:03:17;;;;;;;3.90;2.42;;;17.20;99.90;;;;;;5231045;28;20209;-61
2021/07/25 00:05:49;;;;;;;3.40;2.37;;;17.20;99.90;;;;;;5231465;28;20333;-62
2021/07/25 00:08:26;;;;;;;2.80;2.00;;;17.20;99.90;;;;;;5232493;28;20264;-64
2021/07/25 00:10:58;;;;;;;3.63;2.30;;;17.20;99.90;;;;;;5232163;28;20237;-60
2021/07/25 00:13:30;;;;;;;4.88;2.63;;;17.10;99.90;;;;;;5231456;28;20197;-63
2021/07/25 00:16:03;;;;;;;4.60;2.60;;;17.20;99.90;;;;;;5232047;28;20249;-63
2021/07/25 00:18:43;;;;;;;3.90;2.87;;;17.10;99.90;;;;;;5231851;28;20255;-63
2021/07/25 00:21:15;;;;;;;3.80;2.75;;;17.10;99.90;;;;;;5232038;28;20295;-64
2021/07/25 00:23:51;;;;;;;3.63;2.77;;;17.00;99.90;;;;;;5231106;28;20581;-62
2021/07/25 00:26:27;;;;;;;4.00;3.20;;;17.00;99.90;;;;;;5263963;28;20232;-63
2021/07/25 00:28:59;;;;;;;3.77;3.00;;;16.90;99.90;;;;;;5215068;28;20521;-64
2021/07/25 00:31:34;;;;;;;4.83;3.50;;;16.90;99.90;;;;;;5264164;28;20551;-62
2021/07/25 00:34:06;;;;;;;4.40;3.08;;;16.80;99.90;;;;;;5231529;28;20233;-61
2021/07/25 00:36:38;;;;;;;3.50;2.80;;;16.80;99.90;;;;;;5231688;28;20236;-61
2021/07/25 00:39:10;;;;;;;5.45;3.05;;;16.70;99.90;;;;;;5231549;28;20629;-61
2021/07/25 00:41:45;;;;;;;5.13;2.70;;;16.70;99.90;;;;;;5231068;28;20201;-64
2021/07/25 00:44:19;;;;;;;2.90;2.40;;;16.70;99.90;;;;;;5231723;28;20565;-64
2021/07/25 00:47:04;;;;;;;3.95;2.60;;;16.60;99.90;;;;;;5231109;28;20233;-61
2021/07/25 00:49:36;;;;;;;4.33;2.97;;;16.60;99.90;;;;;;5231749;28;20535;-62
2021/07/25 00:52:11;;;;;;;3.53;2.40;;;16.50;99.90;;;;;;5230303;28;20221;-67
2021/07/25 00:54:43;;;;;;;2.50;2.30;;;16.50;99.90;;;;;;5230257;28;20201;-62
2021/07/25 00:57:15;;;;;;;6.03;3.20;;;16.40;99.90;;;;;;5231364;28;20523;-63
2021/07/25 00:59:49;;;;;;;3.17;2.78;;;16.40;99.90;;;;;;5231130;28;20197;-63
2021/07/25 01:02:25;;;;;;;3.50;2.70;;;16.50;99.90;;;;;;5229521;28;20201;-61
2021/07/25 01:05:12;;;;;;;4.57;2.70;;;16.40;99.90;;;;;;5231404;28;20651;-62
2021/07/25 01:08:00;;;;;;;4.47;3.00;;;16.40;99.90;;;;;;5230652;28;20704;-65
2021/07/25 01:10:35;;;;;;;4.93;2.70;;;16.40;99.90;;;;;;5231069;28;20201;-63
2021/07/25 01:13:23;;;;;;;3.10;2.33;;;16.40;99.90;;;;;;5230781;28;20236;-63
2021/07/25 01:15:58;;;;;;;3.80;2.37;;;16.30;99.90;;;;;;5230097;28;20197;-65
2021/07/25 01:18:30;;;;;;;3.83;2.60;;;16.30;99.90;;;;;;5230527;28;20282;-66
2021/07/25 01:21:02;;;;;;;5.30;2.80;;;16.20;99.90;;;;;;5230854;28;20232;-63
2021/07/25 01:23:37;;;;;;;3.50;2.43;;;16.20;99.90;;;;;;5229350;28;20229;-64
2021/07/25 01:26:13;;;;;;;3.87;2.50;;;16.10;99.90;;;;;;5231237;28;20241;-64
2021/07/25 01:28:49;;;;;;;3.70;2.37;;;16.10;99.90;;;;;;5229450;28;20287;-63
2021/07/25 01:31:28;;;;;;;2.70;2.40;;;16.10;99.90;;;;;;5229213;28;20208;-65
2021/07/25 01:34:01;;;;;;;5.07;2.87;;;16.10;99.90;;;;;;5230273;28;20310;-63
2021/07/25 01:36:38;;;;;;;3.72;2.70;;;16.10;99.90;;;;;;5230047;28;20613;-64
2021/07/25 01:39:12;;;;;;;3.97;2.37;;;16.10;99.90;;;;;;5229191;28;20240;-61
2021/07/25 01:41:44;;;;;;;3.07;2.03;;;16.10;99.90;;;;;;5230333;28;20640;-64
2021/07/25 01:44:16;;;;;;;3.93;2.37;;;16.10;99.90;;;;;;5230201;28;20245;-62
2021/07/25 01:46:50;;;;;;;3.53;2.37;;;16.10;99.90;;;;;;5212743;28;20544;-63
2021/07/25 01:49:24;;;;;;;4.30;2.33;;;16.10;99.90;;;;;;5230166;28;20305;-62
2021/07/25 01:51:59;;;;;;;3.93;2.57;;;16.10;99.90;;;;;;5229011;28;20201;-65
2021/07/25 01:54:31;;;;;;;2.53;2.13;;;16.10;99.90;;;;;;5228895;28;20228;-63
2021/07/25 01:57:03;;;;;;;3.13;2.40;;;16.00;99.90;;;;;;5246247;28;20314;-64
2021/07/25 01:59:35;;;;;;;3.43;2.43;;;15.90;99.90;;;;;;5245966;28;20225;-65
2021/07/25 02:02:07;;;;;;;2.80;2.50;;;16.00;99.90;;;;;;5228929;28;20347;-61
2021/07/25 02:04:39;;;;;;;3.87;2.60;;;16.00;99.90;;;;;;5228709;28;20229;-64
2021/07/25 02:07:12;;;;;;;3.07;2.63;;;16.00;99.90;;;;;;5230184;28;20222;-63
2021/07/25 02:09:44;;;;;;;3.07;2.40;;;15.90;99.90;;;;;;5228932;28;20233;-64
2021/07/25 02:12:16;;;;;;;2.93;2.20;;;15.90;99.90;;;;;;5228010;28;20209;-63
2021/07/25 02:14:48;;;;;;;3.53;2.33;;;15.90;99.90;;;;;;5229874;28;20229;-65
2021/07/25 02:17:22;;;;;;;4.10;2.50;;;15.90;99.90;;;;;;5211968;28;20214;-63
2021/07/25 02:19:56;;;;;;;2.70;2.10;;;15.90;99.90;;;;;;5229333;28;20263;-62
2021/07/25 02:22:28;;;;;;;3.93;2.40;;;15.90;99.90;;;;;;5228698;28;20235;-65
2021/07/25 02:25:02;;;;;;;2.77;2.40;;;15.80;99.90;;;;;;5228601;28;20601;-64
2021/07/25 02:27:34;;;;;;;2.70;2.20;;;15.80;99.90;;;;;;5228388;28;20598;-65
2021/07/25 02:30:07;;;;;;;2.87;2.57;;;15.80;99.90;;;;;;5228309;28;20343;-64
2021/07/25 02:32:39;;;;;;;5.60;2.40;;;15.80;99.90;;;;;;5229559;28;20656;-67
2021/07/25 02:35:13;;;;;;;3.03;2.50;;;15.70;99.90;;;;;;5261379;28;20260;-65
2021/07/25 02:37:46;;;;;;;3.93;2.43;;;15.80;99.90;;;;;;5229307;28;20224;-60
2021/07/25 02:40:18;;;;;;;3.67;3.07;;;15.80;99.90;;;;;;5227980;28;20240;-63
2021/07/25 02:42:50;;;;;;;5.80;3.40;;;15.80;99.90;;;;;;5229292;28;20194;-61
2021/07/25 02:45:23;;;;;;;3.40;3.10;;;15.80;99.90;;;;;;5229478;28;20226;-65
2021/07/25 02:47:55;;;;;;;4.30;2.90;;;15.80;99.90;;;;;;5228389;28;20197;-63
2021/07/25 02:50:27;;;;;;;3.27;2.83;;;15.70;99.90;;;;;;5228036;28;20197;-65
2021/07/25 02:52:59;;;;;;;3.63;2.83;;;15.70;99.90;;;;;;5228023;28;20202;-63
2021/07/25 02:55:32;;;;;;;4.53;4.10;;;15.70;99.90;;;;;;5229046;28;20294;-64
2021/07/25 02:58:04;;;;;;;11.00;9.90;;;15.70;99.90;;;;;;5228405;28;20197;-63
2021/07/25 03:00:36;;;;;;;13.27;10.90;;;15.80;99.90;;;;;;5229205;28;20639;-62
2021/07/25 03:03:10;;;;;;;11.87;10.67;;;15.80;99.90;;;;;;5229166;28;20201;-61
2021/07/25 03:05:42;;;;;;;10.57;9.30;;;15.90;99.90;;;;;;5230067;28;20262;-64
2021/07/25 03:08:14;;;;;;;11.00;9.90;;;15.90;99.90;;;;;;5229241;28;20216;-67
2021/07/25 03:10:46;;;;;;;11.87;10.70;;;15.90;99.90;;;;;;5211709;28;20534;-64
2021/07/25 03:13:19;;;;;;;12.73;11.43;;;16.00;99.90;;;;;;5228576;28;20201;-62
2021/07/25 03:15:50;;;;;;;10.50;9.50;;;16.00;99.90;;;;;;5228354;28;20216;-63
2021/07/25 03:18:22;;;;;;;10.53;9.13;;;16.00;99.90;;;;;;5211644;28;20213;-63
2021/07/25 03:20:57;;;;;;;10.93;9.83;;;16.00;99.90;;;;;;5227840;28;20205;-63
2021/07/25 03:23:30;;;;;;;11.20;10.00;;;16.10;99.90;;;;;;5228687;28;20185;-63
2021/07/25 03:26:03;;;;;;;11.83;9.37;;;16.20;99.90;;;;;;5227633;28;20233;-64
2021/07/25 03:28:35;;;;;;;12.90;8.47;;;16.20;99.90;;;;;;5228663;28;20274;-64
2021/07/25 03:31:12;;;;;;;8.20;7.17;;;16.30;99.90;;;;;;5227878;28;20234;-65
2021/07/25 03:33:44;;;;;;;8.57;6.63;;;16.40;99.90;;;;;;5228446;28;20682;-64
2021/07/25 03:36:16;;;;;;;9.57;6.93;;;16.50;99.90;;;;;;5227793;28;20558;-62
2021/07/25 03:38:48;;;;;;;6.80;6.10;;;16.60;99.90;;;;;;5228195;28;20224;-64
2021/07/25 03:41:20;;;;;;;7.97;5.70;;;16.70;99.90;;;;;;5228684;28;20217;-67
2021/07/25 03:43:52;;;;;;;6.33;5.47;;;16.70;99.90;;;;;;5228420;28;20205;-64
2021/07/25 03:46:25;;;;;;;6.97;5.05;;;16.80;99.90;;;;;;5228234;28;20240;-67
2021/07/25 03:49:01;;;;;;;5.93;5.07;;;16.90;99.90;;;;;;5228471;28;20189;-69
2021/07/25 03:51:33;;;;;;;6.10;4.67;;;17.00;99.90;;;;;;5227611;28;20209;-64
2021/07/25 03:54:08;;;;;;;6.37;5.10;;;17.10;99.90;;;;;;5227181;28;20296;-65
2021/07/25 03:56:40;;;;;;;7.67;4.90;;;17.20;99.90;;;;;;5228516;28;20215;-64
2021/07/25 03:59:12;;;;;;;6.72;5.07;;;17.20;99.90;;;;;;5227287;28;20213;-63
2021/07/25 04:01:46;;;;;;;6.13;4.85;;;17.30;99.90;;;;;;5210558;28;20213;-65
2021/07/25 04:04:18;;;;;;;7.82;5.45;;;17.40;99.90;;;;;;5227572;28;20201;-65
2021/07/25 04:06:53;;;;;;;8.35;5.35;;;17.50;99.90;;;;;;5228295;28;20225;-65
2021/07/25 04:09:24;;;;;;;9.98;5.60;;;17.60;99.90;;;;;;5227989;28;20207;-66
2021/07/25 04:11:56;;;;;;;7.03;5.10;;;17.60;99.90;;;;;;5227285;28;20213;-63
2021/07/25 04:14:28;;;;;;;7.68;5.22;;;17.70;99.90;;;;;;5243694;28;20551;-64
2021/07/25 04:17:00;;;;;;;10.93;5.88;;;17.70;99.90;;;;;;5227259;28;20324;-64
2021/07/25 04:19:32;;;;;;;6.63;5.72;;;17.80;99.90;;;;;;5227535;28;20357;-63
2021/07/25 04:22:06;;;;;;;7.43;6.63;;;17.90;99.90;;;;;;5227868;28;20205;-62
2021/07/25 04:24:38;;;;;;;7.78;6.60;;;18.00;99.90;;;;;;5226898;28;20200;-63
2021/07/25 04:27:12;;;;;;;10.65;7.32;;;18.00;99.90;;;;;;5226907;28;20225;-63
2021/07/25 04:29:45;;;;;;;10.15;6.72;;;18.10;99.90;;;;;;5228331;28;20272;-65
2021/07/25 04:32:17;;;;;;;7.85;6.55;;;18.20;99.90;;;;;;5227959;28;20206;-66
2021/07/25 04:34:52;;;;;;;9.20;7.18;;;18.30;99.90;;;;;;5226851;28;20683;-64
2021/07/25 04:37:27;;;;;;;10.43;6.57;;;18.40;99.90;;;;;;5230710;28;20205;-62
2021/07/25 04:39:59;;;;;;;10.07;6.45;;;18.50;99.90;;;;;;5230773;28;20504;-64
2021/07/25 04:42:35;;;;;;;7.47;6.07;;;18.60;99.90;;;;;;5230918;28;20221;-62
2021/07/25 04:45:07;;;;;;;6.60;5.30;;;18.70;99.90;;;;;;5231467;28;20205;-64
2021/07/25 04:47:48;;;;;;;7.30;5.22;;;18.80;99.90;;;;;;5231376;28;20225;-64
2021/07/25 04:50:26;;;;;;;4.65;4.25;;;18.90;99.90;;;;;;5231288;28;20189;-64
2021/07/25 04:53:01;;;;;;;7.00;4.95;;;19.10;99.90;;;;;;5231412;28;20617;-65
2021/07/25 04:55:34;;;;;;;6.07;4.47;;;19.20;99.90;;;;;;5231885;28;20572;-62
2021/07/25 04:58:07;;;;;;;5.28;4.43;;;19.30;99.90;;;;;;5231509;28;20212;-62
2021/07/25 05:00:45;;;;;;;5.47;4.18;;;19.50;99.90;;;;;;5231639;28;20209;-66
2021/07/25 05:03:19;;;;;;;7.68;4.20;;;19.60;99.90;;;;;;5230712;28;20213;-67
2021/07/25 05:05:55;;;;;;;4.10;3.72;;;19.70;99.90;;;;;;5213819;28;20335;-64
2021/07/25 05:08:28;;;;;;;7.15;3.85;;;19.80;99.90;;;;;;5214289;28;20522;-63
2021/07/25 05:11:17;;;;;;;4.18;3.53;;;19.80;99.90;;;;;;5214481;28;20236;-66
2021/07/25 05:13:55;;;;;;;4.85;3.22;;;19.90;99.90;;;;;;5231335;28;20206;-63
2021/07/25 05:16:39;;;;;;;6.05;3.53;;;19.90;99.90;;;;;;5232780;28;20204;-65
2021/07/25 05:19:28;;;;;;;4.72;3.65;;;20.00;99.90;;;;;;5231445;28;20190;-65
2021/07/25 05:22:17;;;;;;;4.30;3.65;;;20.00;99.90;;;;;;5229887;28;20232;-63
2021/07/25 05:24:53;;;;;;;5.80;3.20;;;20.10;99.90;;;;;;5230527;28;20190;-62
2021/07/25 05:27:31;;;;;;;5.22;3.10;;;20.20;99.90;;;;;;5230623;28;20220;-64
2021/07/25 05:30:04;;;;;;;5.22;3.10;;;20.20;99.90;;;;;;5230833;28;20602;-62
2021/07/25 05:32:38;;;;;;;5.35;3.65;;;20.30;99.90;;;;;;5229776;28;20206;-62
2021/07/25 05:35:12;;;;;;;8.88;3.40;;;20.40;99.90;;;;;;5228138;28;20229;-61
2021/07/25 05:37:45;;;;;;;5.53;3.20;;;20.60;99.90;;;;;;5230071;28;20645;-61
2021/07/25 05:40:17;;;;;;;4.95;3.10;;;20.70;99.90;;;;;;5229904;28;20193;-65
2021/07/25 05:42:49;;;;;;;4.93;3.35;;;20.80;99.90;;;;;;5229032;28;20202;-65
2021/07/25 05:45:24;;;;;;;4.07;3.60;;;20.90;99.90;;;;;;5229156;28;20197;-65
2021/07/25 05:47:58;;;;;;;6.05;4.97;;;20.90;99.90;;;;;;5226401;28;20252;-65
2021/07/25 05:50:30;;;;;;;7.85;5.00;;;20.80;99.90;;;;;;5229109;28;20193;-64
2021/07/25 05:53:03;;;;;;;5.80;3.55;;;20.90;99.90;;;;;;5229115;28;20521;-67
2021/07/25 05:55:35;;;;;;;8.60;4.60;;;21.00;99.90;;;;;;5227336;28;20217;-63
2021/07/25 05:58:09;;;;;;;6.45;3.13;;;21.10;99.90;;;;;;5228914;28;20208;-66
2021/07/25 06:00:41;;;;;;;6.10;3.35;;;21.30;99.90;;;;;;5210836;28;20546;-65
2021/07/25 06:03:13;;;;;;;6.82;3.72;;;21.40;99.90;;;;;;5230435;28;20255;-67
2021/07/25 06:05:46;;;;;;;8.65;4.50;;;21.50;99.90;;;;;;5212846;28;20209;-63
2021/07/25 06:08:18;;;;;;;5.35;3.20;;;21.70;99.90;;;;;;5229010;28;20514;-64
2021/07/25 06:10:49;;;;;;;4.97;3.38;;;22.70;99.90;;;;;;5228821;28;20213;-64
2021/07/25 06:13:21;;;;;;;8.43;3.30;;;24.20;99.90;;;;;;5230024;28;20648;-66
2021/07/25 06:15:53;;;;;;;6.85;3.80;;;25.70;99.90;;;;;;5229095;28;20216;-65
2021/07/25 06:18:26;;;;;;;9.77;4.53;;;27.20;99.90;;;;;;5229922;28;20267;-67
2021/07/25 06:20:58;;;;;;;7.00;4.68;;;28.00;99.90;;;;;;5213370;28;20244;-65
2021/07/25 06:23:29;;;;;;;12.52;4.25;;;28.30;99.90;;;;;;5212276;28;20232;-65
2021/07/25 06:26:01;;;;;;;11.55;4.25;;;29.20;99.90;;;;;;5230182;28;20197;-65
2021/07/25 06:28:35;;;;;;;6.60;3.80;;;30.50;99.90;;;;;;5228640;28;20209;-63
2021/07/25 06:31:10;;;;;;;5.22;3.67;;;31.00;99.90;;;;;;5229019;28;20201;-68
2021/07/25 06:33:42;;;;;;;7.55;4.55;;;31.30;99.90;;;;;;5228487;28;20290;-67
2021/07/25 06:36:14;;;;;;;6.93;4.10;;;31.50;99.90;;;;;;5229489;28;20227;-65
2021/07/25 06:38:46;;;;;;;7.35;3.60;;;31.50;99.90;;;;;;5229145;28;20653;-63
2021/07/25 06:41:18;;;;;;;6.68;3.60;;;32.10;99.90;;;;;;5211962;28;20208;-66
2021/07/25 06:43:50;;;;;;;4.93;3.05;;;32.10;99.90;;;;;;5228582;28;20201;-68
2021/07/25 06:46:25;;;;;;;4.57;2.95;;;32.50;99.90;;;;;;5228123;28;20216;-65
2021/07/25 06:48:57;;;;;;;4.85;3.13;;;32.50;99.90;;;;;;5229254;28;20209;-75
2021/07/25 06:51:38;;;;;;;6.68;2.80;;;32.70;99.90;;;;;;5228202;28;20501;-73
2021/07/25 06:54:10;;;;;;;4.72;2.58;;;32.90;99.90;;;;;;5229278;28;20240;-65
2021/07/25 06:56:43;;;;;;;4.45;2.50;;;33.40;99.90;;;;;;5228786;28;20600;-64
2021/07/25 06:59:15;;;;;;;5.78;2.50;;;34.00;99.90;;;;;;5229371;28;20227;-65
2021/07/25 07:01:47;;;;;;;5.68;2.40;;;34.40;99.90;;;;;;5233618;28;20209;-66
2021/07/25 07:04:19;;;;;;;4.68;2.88;;;34.20;99.90;;;;;;5224463;28;20202;-65
2021/07/25 07:06:54;;;;;;;4.82;2.70;;;34.00;99.90;;;;;;5243409;28;20254;-66
2021/07/25 07:09:25;;;;;;;4.13;2.60;;;33.80;99.90;;;;;;5233237;28;20212;-65
2021/07/25 07:12:00;;;;;;;4.93;2.65;;;34.20;99.90;;;;;;5228335;28;20197;-65
2021/07/25 07:14:32;;;;;;;7.10;2.92;;;34.70;99.90;;;;;;5229502;28;20561;-64
2021/07/25 07:17:05;;;;;;;3.10;2.78;;;34.00;99.90;;;;;;5228898;28;20219;-65
2021/07/25 07:19:36;;;;;;;7.28;2.80;;;34.10;99.20;;;;;;5227768;28;20254;-64
2021/07/25 07:22:08;;;;;;;6.35;3.17;;;33.70;99.00;;;;;;5228828;28;20648;-63
2021/07/25 07:24:42;;;;;;;5.43;2.95;;;33.20;99.40;;;;;;5217275;28;20587;-66
2021/07/25 07:27:14;;;;;;;5.90;3.33;;;32.70;99.80;;;;;;5232246;28;20220;-64
2021/07/25 07:29:48;;;;;;;5.70;3.15;;;32.70;99.90;;;;;;5249611;28;20225;-68
2021/07/25 07:32:23;;;;;;;8.43;3.25;;;31.60;99.90;;;;;;5249425;28;20204;-68
2021/07/25 07:34:55;;;;;;;5.75;3.53;;;31.80;99.90;;;;;;5248383;28;20236;-67
2021/07/25 07:37:27;;;;;;;5.47;3.67;;;31.30;99.90;;;;;;5243615;28;20220;-63
2021/07/25 07:39:59;;;;;;;5.82;3.60;;;30.70;99.90;;;;;;5238070;28;20511;-64
2021/07/25 07:42:31;;;;;;;5.40;3.40;;;30.10;99.90;;;;;;5249792;28;20205;-65
2021/07/25 07:45:07;;;;;;;5.45;4.00;;;29.60;99.90;;;;;;5248617;28;20209;-65
2021/07/25 07:47:39;;;;;;;6.40;4.05;;;29.10;99.90;;;;;;5248059;28;20204;-63
2021/07/25 07:50:11;;;;;;;9.25;3.63;;;28.70;99.90;;;;;;5247827;28;20694;-66
2021/07/25 07:52:43;;;;;;;7.78;4.05;;;28.50;99.90;;;;;;5247942;28;20201;-63
2021/07/25 07:55:16;;;;;;;6.35;3.97;;;28.40;99.90;;;;;;5249123;28;20225;-67
2021/07/25 07:57:48;;;;;;;6.05;3.25;;;28.40;99.90;;;;;;5231773;28;20192;-64
2021/07/25 08:00:21;;;;;;;8.63;3.67;;;28.50;99.90;;;;;;5231806;28;20258;-68
2021/07/25 08:02:53;;;;;;;6.43;3.85;;;28.50;99.90;;;;;;5249425;28;20616;-64
2021/07/25 08:05:27;;;;;;;6.03;3.53;;;28.60;99.90;;;;;;5231400;28;20235;-68
2021/07/25 08:07:59;;;;;;;9.55;3.45;;;28.50;99.90;;;;;;5248322;28;20232;-71
2021/07/25 08:10:32;;;;;;;7.65;3.30;;;28.70;99.90;;;;;;5248673;28;20228;-65
2021/07/25 08:13:06;;;;;;;5.57;4.18;;;28.10;99.90;;;;;;5253161;28;20319;-66
2021/07/25 08:15:39;;;;;;;5.97;3.92;;;27.70;99.90;;;;;;5252850;28;20228;-65
2021/07/25 08:18:13;;;;;;;5.72;3.53;;;27.20;99.90;;;;;;5252904;28;20208;-65
2021/07/25 08:20:45;;;;;;;6.13;3.40;;;27.10;99.90;;;;;;5252050;28;20216;-63
2021/07/25 08:23:17;;;;;;;6.90;3.45;;;27.40;99.90;;;;;;5253104;28;20224;-64
2021/07/25 08:25:48;;;;;;;8.82;3.50;;;27.40;99.90;;;;;;5251336;28;20236;-65
2021/07/25 08:28:20;;;;;;;6.55;3.40;;;27.40;99.90;;;;;;5252454;28;20232;-64
2021/07/25 08:30:52;;;;;;;5.72;3.45;;;27.00;99.90;;;;;;5251649;28;20196;-67
2021/07/25 08:33:25;;;;;;;5.35;3.83;;;26.80;99.90;;;;;;5252515;28;20530;-62
2021/07/25 08:35:57;;;;;;;7.68;3.80;;;26.70;99.90;;;;;;5252627;28;20233;-66
2021/07/25 08:38:31;;;;;;;9.10;4.28;;;26.70;99.90;;;;;;5252340;28;20295;-57
2021/07/25 08:41:50;;;;;;;6.82;3.65;;;26.90;99.90;;;;;;5252287;28;20236;-57
2021/07/25 08:44:49;;;;;;;7.43;4.20;;;26.80;99.90;;;;;;5221299;28;20539;-61
2021/07/25 08:47:31;;;;;;;8.88;4.35;;;26.50;99.90;;;;;;5251527;28;20231;-56
2021/07/25 08:50:10;;;;;;;9.38;3.90;;;26.20;99.90;;;;;;5251814;28;20235;-55
2021/07/25 08:52:53;;;;;;;7.15;4.22;;;25.90;99.90;;;;;;5251811;28;20211;-55
2021/07/25 08:55:25;;;;;;;7.93;4.30;;;25.90;99.90;;;;;;5252100;28;20224;-53
2021/07/25 08:58:07;;;;;;;10.02;4.63;;;25.80;99.90;;;;;;5251007;28;20223;-56
2021/07/25 09:00:39;;;;;;;7.22;4.15;;;25.90;99.90;;;;;;5251911;28;20247;-59
2021/07/25 09:03:12;;;;;;;5.18;3.90;;;26.20;99.90;;;;;;5250591;28;20228;-56
2021/07/25 09:05:49;;;;;;;8.90;4.25;;;26.20;99.90;;;;;;5250471;28;20247;-57
2021/07/25 09:08:23;;;;;;;6.18;4.40;;;26.40;99.90;;;;;;5250989;28;20252;-59
2021/07/25 09:10:56;;;;;;;10.48;4.35;;;26.20;99.90;;;;;;5234319;28;20220;-60
2021/07/25 09:13:30;;;;;;;6.53;4.65;;;26.20;99.90;;;;;;5250853;28;20523;-60
2021/07/25 09:16:04;;;;;;;9.90;4.57;;;26.20;99.90;;;;;;5251841;28;20220;-55
2021/07/25 09:18:43;;;;;;;6.85;4.45;;;26.20;99.90;;;;;;5249081;28;20203;-57
2021/07/25 09:21:35;;;;;;;5.32;4.15;;;26.00;99.90;;;;;;5224780;28;20540;-55
2021/07/25 09:24:27;;;;;;;7.43;4.38;;;26.20;99.90;;;;;;5231099;28;20213;-58
2021/07/25 09:27:05;;;;;;;6.20;3.90;;;26.50;99.90;;;;;;5210073;28;20245;-60
2021/07/25 09:29:37;;;;;;;7.13;4.50;;;26.70;99.90;;;;;;5209956;28;20201;-58
2021/07/25 09:32:17;;;;;;;9.45;4.60;;;26.60;99.90;;;;;;5225781;28;20205;-51
2021/07/25 09:34:50;;;;;;;10.45;5.28;;;26.40;99.90;;;;;;5229313;28;20565;-53
2021/07/25 09:37:24;;;;;;;8.48;5.43;;;26.40;99.90;;;;;;5229303;28;20237;-49
2021/07/25 09:39:57;;;;;;;9.60;5.32;;;26.30;99.90;;;;;;5230427;28;20519;-51
2021/07/25 09:42:33;;;;;;;10.85;5.38;;;26.00;99.90;;;;;;5229254;28;20263;-51
2021/07/25 09:45:06;;;;;;;6.55;4.70;;;26.10;99.90;;;;;;5230591;28;20197;-51
2021/07/25 09:47:44;;;;;;;6.05;4.60;;;26.10;99.90;;;;;;5228240;28;20225;-51
2021/07/25 09:50:26;;;;;;;9.60;5.70;;;26.10;99.90;;;;;;5227408;28;20207;-46
2021/07/25 09:53:01;;;;;;;9.07;4.70;;;26.20;99.90;;;;;;5228317;28;20236;-45
2021/07/25 09:55:33;;;;;;;13.27;7.75;;;26.20;99.90;;;;;;5226624;28;20487;-54
2021/07/25 09:58:06;;;;;;;8.00;5.05;;;26.10;99.90;;;;;;5246354;28;20241;-48
2021/07/25 10:00:42;;;;;;;10.68;4.30;;;26.20;99.90;;;;;;5229432;28;20537;-49
2021/07/25 10:03:32;;;;;;;7.70;4.68;;;26.20;99.90;;;;;;5228460;28;20197;-55
2021/07/25 10:06:40;;;;;;;7.90;4.80;;;26.30;99.90;;;;;;5228693;28;20521;-53
2021/07/25 10:09:19;;;;;;;8.70;5.03;;;26.20;99.90;;;;;;5228953;28;20573;-51
2021/07/25 10:12:01;;;;;;;7.68;4.95;;;26.30;99.90;;;;;;5229535;28;20231;-51
2021/07/25 10:14:38;;;;;;;13.75;5.63;;;26.40;99.90;;;;;;5228898;28;20197;-55
2021/07/25 10:17:10;;;;;;;10.90;5.03;;;26.60;99.90;;;;;;5229094;28;20197;-44
2021/07/25 10:19:44;;;;;;;8.82;5.35;;;26.80;99.90;;;;;;5230097;28;20271;-54
2021/07/25 10:22:17;;;;;;;9.85;5.13;;;26.80;99.90;;;;;;5230004;28;20269;-50
2021/07/25 10:24:51;;;;;;;9.20;5.63;;;26.80;99.90;;;;;;5242534;28;20219;-55
2021/07/25 10:27:27;;;;;;;9.40;5.10;;;26.40;99.90;;;;;;5243461;28;20216;-45
2021/07/25 10:30:09;;;;;;;10.55;5.43;;;26.20;99.90;;;;;;5227970;28;20235;-49
2021/07/25 10:32:42;;;;;;;11.80;5.68;;;26.00;99.90;;;;;;5227291;28;20213;-49
2021/07/25 10:35:14;;;;;;;11.32;5.72;;;25.80;99.90;;;;;;5228020;28;20206;-46
2021/07/25 10:37:49;;;;;;;11.85;6.05;;;25.70;99.90;;;;;;5243328;28;20208;-41
2021/07/25 10:40:22;;;;;;;12.00;6.53;;;25.50;99.90;;;;;;5230283;28;20189;-49
2021/07/25 10:42:54;;;;;;;10.90;5.80;;;25.60;99.90;;;;;;5235042;28;20228;-43
2021/07/25 10:45:26;;;;;;;14.52;6.93;;;25.70;99.90;;;;;;5237522;28;20201;-47
2021/07/25 10:48:17;;;;;;;14.68;5.72;;;25.90;99.90;;;;;;5237444;28;20213;-43
2021/07/25 10:51:09;;;;;;;7.18;5.07;;;26.00;99.90;;;;;;5230100;28;20311;-45
2021/07/25 10:53:49;;;;;;;10.85;5.35;;;26.10;99.90;;;;;;5226396;28;20214;-44
2021/07/25 10:56:58;;;;;;;10.82;5.57;;;26.30;99.90;;;;;;5245356;28;20200;-50
2021/07/25 10:59:52;;;;;;;8.43;5.65;;;26.40;99.90;;;;;;5227017;28;20222;-42
2021/07/25 11:02:29;;;;;;;11.80;5.47;;;26.60;99.90;;;;;;5228289;28;20202;-48
2021/07/25 11:05:03;;;;;;;8.48;5.00;;;26.50;99.90;;;;;;5228356;28;20221;-47
2021/07/25 11:07:36;;;;;;;10.40;5.53;;;26.10;99.90;;;;;;5227949;28;20536;-45
2021/07/25 11:10:16;;;;;;;12.38;5.30;;;25.70;99.90;;;;;;5245951;28;20220;-42
2021/07/25 11:12:50;;;;;;;7.68;5.38;;;25.60;99.90;;;;;;5248559;28;20200;-46
2021/07/25 11:15:34;;;;;;;12.88;5.47;;;25.40;99.90;;;;;;5238210;28;20217;-46
2021/07/25 11:18:16;;;;;;;6.68;4.78;;;25.40;99.90;;;;;;5229034;28;20205;-45
2021/07/25 11:21:01;;;;;;;8.90;4.90;;;25.50;99.90;;;;;;5242326;28;20252;-50
2021/07/25 11:23:35;;;;;;;10.35;4.50;;;25.40;99.90;;;;;;5240840;28;20207;-41
2021/07/25 11:26:32;;;;;;;9.05;4.47;;;25.50;99.90;;;;;;5232804;28;20499;-48
2021/07/25 11:29:07;;;;;;;7.25;4.78;;;25.60;99.90;;;;;;5232107;28;20210;-46
2021/07/25 11:31:42;;;;;;;6.57;4.65;;;25.80;99.90;;;;;;5231305;28;20228;-40
2021/07/25 11:34:28;;;;;;;8.35;4.63;;;25.80;99.90;;;;;;5235888;28;20240;-43
2021/07/25 11:37:03;;;;;;;8.40;4.50;;;26.00;99.90;;;;;;5230988;28;20205;-43
2021/07/25 11:39:35;;;;;;;10.02;5.25;;;26.10;99.90;;;;;;5231068;28;20200;-41
2021/07/25 11:42:08;;;;;;;6.75;4.93;;;26.10;99.90;;;;;;5233533;28;20438;-40
2021/07/25 11:44:43;;;;;;;12.93;4.97;;;26.00;99.90;;;;;;5234289;28;20517;-61
2021/07/25 11:47:26;;;;;;;6.68;5.10;;;26.20;99.90;;;;;;5240534;28;20197;-56
2021/07/25 11:50:03;;;;;;;8.65;5.28;;;26.00;99.90;;;;;;5233535;28;20601;-62
2021/07/25 11:52:35;;;;;;;8.70;5.55;;;26.10;99.90;;;;;;5239429;28;20201;-54
2021/07/25 11:55:07;;;;;;;10.00;5.43;;;25.90;99.90;;;;;;5238342;28;20193;-64
2021/07/25 11:57:43;;;;;;;9.18;5.22;;;25.80;99.90;;;;;;5256755;28;20202;-58
2021/07/25 12:00:18;;;;;;;11.75;5.47;;;25.70;99.90;;;;;;5236299;28;20193;-58
2021/07/25 12:02:56;;;;;;;9.00;5.45;;;25.70;99.90;;;;;;5252524;28;20215;-55
2021/07/25 12:05:29;;;;;;;7.95;5.25;;;25.60;99.90;;;;;;5247595;28;20193;-58
2021/07/25 12:08:11;;;;;;;7.82;5.32;;;25.70;99.90;;;;;;5242689;28;20513;-57
2021/07/25 12:10:46;;;;;;;9.68;5.22;;;25.70;99.90;;;;;;5230473;28;20624;-57
2021/07/25 12:13:18;;;;;;;9.25;6.18;;;25.60;99.90;;;;;;5241298;28;20196;-56
2021/07/25 12:15:50;;;;;;;12.10;6.20;;;25.60;99.90;;;;;;5238984;28;20216;-61
2021/07/25 12:18:34;;;;;;;11.02;5.60;;;25.60;99.90;;;;;;5247156;28;20202;-53
2021/07/25 12:21:27;;;;;;;8.02;5.43;;;25.70;99.90;;;;;;5243412;28;20205;-57
2021/07/25 12:23:59;;;;;;;8.30;6.10;;;25.70;99.90;;;;;;5234818;28;20502;-56
2021/07/25 12:26:40;;;;;;;8.60;5.65;;;25.60;99.90;;;;;;5242690;28;20205;-62
2021/07/25 12:29:37;;;;;;;11.30;6.50;;;25.60;99.90;;;;;;5236843;28;20505;-59
2021/07/25 12:32:22;;;;;;;12.40;6.38;;;25.50;99.90;;;;;;5248278;28;20641;-56
2021/07/25 12:35:12;;;;;;;10.95;7.15;;;25.50;99.90;;;;;;5231974;28;20673;-58
2021/07/25 12:38:11;;;;;;;12.77;7.60;;;25.60;99.90;;;;;;5229604;28;20237;-56
2021/07/25 12:40:47;;;;;;;14.00;7.90;;;25.70;99.90;;;;;;5241181;28;20185;-62
2021/07/25 12:43:28;;;;;;;16.13;7.88;;;25.90;99.90;;;;;;5259836;28;20228;-56
2021/07/25 12:46:03;;;;;;;11.77;7.80;;;25.90;99.90;;;;;;5250445;28;20189;-60
2021/07/25 12:48:36;;;;;;;10.10;6.95;;;26.10;99.90;;;;;;5238288;28;20603;-49
2021/07/25 12:53:56;;;;;;;9.93;7.07;;;26.20;99.90;;;;;;5264587;28;20226;-55
2021/07/25 12:56:32;;;;;;;11.90;5.97;;;26.50;99.90;;;;;;5244966;28;20539;-59
2021/07/25 12:59:09;;;;;;;9.73;6.85;;;26.60;99.90;;;;;;5262601;28;20652;-49
2021/07/25 13:04:24;;;;;;;12.35;6.75;;;26.80;99.90;;;;;;5243721;28;20315;-51
2021/07/25 13:06:56;;;;;;;10.50;6.72;;;26.90;99.90;;;;;;5249823;28;20196;-52
2021/07/25 13:09:28;;;;;;;12.20;6.43;;;26.90;99.90;;;;;;5197179;28;20251;-55
2021/07/25 13:12:00;;;;;;;10.48;6.55;;;26.90;99.90;;;;;;5231197;28;20197;-56
2021/07/25 13:14:34;;;;;;;10.63;7.10;;;26.90;99.90;;;;;;5231060;28;20222;-55
2021/07/25 13:17:06;;;;;;;9.75;6.63;;;27.00;99.90;;;;;;5230893;28;20304;-55
2021/07/25 13:19:38;;;;;;;10.38;6.90;;;27.00;99.90;;;;;;5231170;28;20233;-55
2021/07/25 13:22:10;;;;;;;10.73;6.85;;;27.30;99.90;;;;;;5231170;28;20315;-57
2021/07/25 13:24:42;;;;;;;15.50;7.85;;;27.40;99.90;;;;;;5231198;28;20268;-57
2021/07/25 13:27:14;;;;;;;9.52;7.70;;;27.40;99.90;;;;;;5230040;28;20232;-59
2021/07/25 13:29:46;;;;;;;10.60;7.40;;;27.60;99.90;;;;;;5230733;28;20230;-58
2021/07/25 13:32:23;;;;;;;13.35;6.82;;;27.70;99.90;;;;;;5231161;28;20515;-58